createdAt,value
2018-08-10T00:00:55.000Z,36
2018-08-10T00:01:55.000Z,36
2018-08-10T00:02:55.000Z,36
2018-08-10T00:04:55.000Z,36
2018-08-10T00:05:55.000Z,36
2018-08-10T00:06:55.000Z,36
2018-08-10T00:07:55.000Z,36
2018-08-10T00:08:55.000Z,36
2018-08-10T00:09:55.000Z,36
2018-08-10T00:10:55.000Z,36
2018-08-10T00:11:55.000Z,36
2018-08-10T00:12:55.000Z,36
2018-08-10T00:13:55.000Z,36
2018-08-10T00:14:55.000Z,36
2018-08-10T00:16:55.000Z,36
2018-08-10T00:18:55.000Z,36
2018-08-10T00:19:55.000Z,36
2018-08-10T00:20:55.000Z,36
2018-08-10T00:21:55.000Z,36
2018-08-10T00:22:55.000Z,36
2018-08-10T00:23:55.000Z,36
2018-08-10T00:24:55.000Z,36
2018-08-10T00:25:55.000Z,36
2018-08-10T00:27:55.000Z,36
2018-08-10T00:28:55.000Z,36
2018-08-10T00:29:55.000Z,36
2018-08-10T00:30:55.000Z,36
2018-08-10T00:31:55.000Z,36
2018-08-10T00:32:55.000Z,36
2018-08-10T00:33:55.000Z,36
2018-08-10T00:34:55.000Z,36
2018-08-10T00:35:55.000Z,36
2018-08-10T00:37:55.000Z,36
2018-08-10T00:38:55.000Z,36
2018-08-10T00:39:55.000Z,36
2018-08-10T00:40:55.000Z,36
2018-08-10T00:41:55.000Z,36
2018-08-10T00:42:55.000Z,36
2018-08-10T00:43:55.000Z,36
2018-08-10T00:44:55.000Z,36
2018-08-10T00:46:55.000Z,36
2018-08-10T00:47:55.000Z,36
2018-08-10T00:48:55.000Z,36
2018-08-10T00:49:55.000Z,36
2018-08-10T00:50:55.000Z,36
2018-08-10T00:51:55.000Z,36
2018-08-10T00:52:55.000Z,36
2018-08-10T00:53:55.000Z,36
2018-08-10T00:54:55.000Z,36
2018-08-10T00:55:55.000Z,36
2018-08-10T00:56:55.000Z,36
2018-08-10T00:58:55.000Z,36
2018-08-10T00:59:55.000Z,36
2018-08-10T01:00:55.000Z,36
2018-08-10T01:01:55.000Z,36
2018-08-10T01:02:55.000Z,36
2018-08-10T01:03:55.000Z,36
2018-08-10T01:04:55.000Z,36
2018-08-10T01:05:55.000Z,36
2018-08-10T01:06:55.000Z,36
2018-08-10T01:07:55.000Z,36
2018-08-10T01:08:55.000Z,36
2018-08-10T01:09:55.000Z,36
2018-08-10T01:10:55.000Z,36
2018-08-10T01:11:55.000Z,35
2018-08-10T01:13:55.000Z,35
2018-08-10T01:14:55.000Z,36
2018-08-10T01:15:55.000Z,36
2018-08-10T01:16:55.000Z,36
2018-08-10T01:17:55.000Z,36
2018-08-10T01:18:55.000Z,36
2018-08-10T01:20:55.000Z,35
2018-08-10T01:22:55.000Z,35
2018-08-10T01:23:55.000Z,36
2018-08-10T01:24:55.000Z,36
2018-08-10T01:25:55.000Z,36
2018-08-10T01:26:55.000Z,36
2018-08-10T01:27:55.000Z,36
2018-08-10T01:28:55.000Z,36
2018-08-10T01:29:55.000Z,36
2018-08-10T01:30:55.000Z,35
2018-08-10T01:31:55.000Z,36
2018-08-10T01:32:55.000Z,35
2018-08-10T01:33:55.000Z,36
2018-08-10T01:34:55.000Z,36
2018-08-10T01:35:55.000Z,35
2018-08-10T01:36:55.000Z,35
2018-08-10T01:37:55.000Z,35
2018-08-10T01:38:55.000Z,35
2018-08-10T01:39:55.000Z,35
2018-08-10T01:40:55.000Z,35
2018-08-10T01:41:55.000Z,35
2018-08-10T01:42:55.000Z,35
2018-08-10T01:43:55.000Z,35
2018-08-10T01:44:55.000Z,35
2018-08-10T01:45:55.000Z,35
2018-08-10T01:46:55.000Z,35
2018-08-10T01:47:55.000Z,35
2018-08-10T01:48:55.000Z,35
2018-08-10T01:49:55.000Z,35
2018-08-10T01:50:55.000Z,35
2018-08-10T01:51:55.000Z,35
2018-08-10T01:52:55.000Z,35
2018-08-10T01:53:55.000Z,35
2018-08-10T01:54:55.000Z,35
2018-08-10T01:55:55.000Z,35
2018-08-10T01:56:55.000Z,35
2018-08-10T01:57:55.000Z,35
2018-08-10T01:58:55.000Z,35
2018-08-10T01:59:55.000Z,35
2018-08-10T02:00:55.000Z,35
2018-08-10T02:01:55.000Z,35
2018-08-10T02:02:55.000Z,35
2018-08-10T02:04:55.000Z,34
2018-08-10T02:05:55.000Z,35
2018-08-10T02:06:55.000Z,34
2018-08-10T02:10:41.000Z,35
2018-08-10T02:11:41.000Z,35
2018-08-10T02:12:41.000Z,35
2018-08-10T02:13:41.000Z,35
2018-08-10T02:14:41.000Z,35
2018-08-10T02:15:41.000Z,35
2018-08-10T02:16:41.000Z,35
2018-08-10T02:17:41.000Z,35
2018-08-10T02:18:41.000Z,35
2018-08-10T02:20:41.000Z,35
2018-08-10T02:21:41.000Z,35
2018-08-10T02:22:41.000Z,35
2018-08-10T02:23:41.000Z,35
2018-08-10T02:24:41.000Z,35
2018-08-10T02:25:41.000Z,35
2018-08-10T02:26:41.000Z,35
2018-08-10T02:27:41.000Z,35
2018-08-10T02:28:41.000Z,35
2018-08-10T02:30:41.000Z,34
2018-08-10T02:31:41.000Z,35
2018-08-10T02:32:41.000Z,34
2018-08-10T02:33:41.000Z,35
2018-08-10T02:34:41.000Z,35
2018-08-10T02:35:41.000Z,35
2018-08-10T02:36:41.000Z,35
2018-08-10T02:37:41.000Z,35
2018-08-10T02:38:41.000Z,34
2018-08-10T02:39:41.000Z,35
2018-08-10T02:41:41.000Z,34
2018-08-10T02:42:41.000Z,35
2018-08-10T02:43:41.000Z,35
2018-08-10T02:44:41.000Z,34
2018-08-10T02:46:41.000Z,34
2018-08-10T02:47:41.000Z,35
2018-08-10T02:48:41.000Z,35
2018-08-10T02:49:41.000Z,34
2018-08-10T02:51:41.000Z,34
2018-08-10T02:52:41.000Z,35
2018-08-10T02:53:41.000Z,34
2018-08-10T02:54:41.000Z,35
2018-08-10T02:55:41.000Z,35
2018-08-10T02:57:41.000Z,34
2018-08-10T02:58:41.000Z,35
2018-08-10T02:59:41.000Z,35
2018-08-10T03:00:41.000Z,35
2018-08-10T03:01:41.000Z,35
2018-08-10T03:02:41.000Z,35
2018-08-10T03:04:41.000Z,34
2018-08-10T03:05:41.000Z,35
2018-08-10T03:06:41.000Z,35
2018-08-10T03:08:41.000Z,35
2018-08-10T03:09:41.000Z,35
2018-08-10T03:10:41.000Z,35
2018-08-10T03:11:41.000Z,35
2018-08-10T03:12:41.000Z,35
2018-08-10T03:14:41.000Z,35
2018-08-10T03:15:41.000Z,35
2018-08-10T03:16:41.000Z,35
2018-08-10T03:17:41.000Z,35
2018-08-10T03:18:41.000Z,35
2018-08-10T03:19:41.000Z,35
2018-08-10T03:20:41.000Z,35
2018-08-10T03:21:41.000Z,35
2018-08-10T03:22:41.000Z,35
2018-08-10T03:23:41.000Z,35
2018-08-10T03:24:41.000Z,34
2018-08-10T03:25:41.000Z,35
2018-08-10T03:27:41.000Z,34
2018-08-10T03:28:41.000Z,34
2018-08-10T03:29:41.000Z,35
2018-08-10T03:31:41.000Z,34
2018-08-10T03:32:41.000Z,34
2018-08-10T03:33:41.000Z,34
2018-08-10T03:34:41.000Z,34
2018-08-10T03:35:41.000Z,35
2018-08-10T03:37:41.000Z,34
2018-08-10T03:38:41.000Z,34
2018-08-10T03:39:41.000Z,34
2018-08-10T03:40:41.000Z,34
2018-08-10T03:41:41.000Z,34
2018-08-10T03:42:41.000Z,34
2018-08-10T03:43:41.000Z,34
2018-08-10T03:44:41.000Z,34
2018-08-10T03:45:41.000Z,34
2018-08-10T03:46:41.000Z,34
2018-08-10T03:47:41.000Z,34
2018-08-10T03:48:41.000Z,34
2018-08-10T03:49:41.000Z,34
2018-08-10T03:51:41.000Z,34
2018-08-10T03:52:41.000Z,34
2018-08-10T03:53:41.000Z,34
2018-08-10T03:54:41.000Z,34
2018-08-10T03:55:41.000Z,34
2018-08-10T03:56:41.000Z,34
2018-08-10T03:57:41.000Z,34
2018-08-10T03:58:41.000Z,34
2018-08-10T03:59:41.000Z,34
2018-08-10T04:00:41.000Z,34
2018-08-10T04:02:41.000Z,34
2018-08-10T04:04:41.000Z,34
2018-08-10T04:05:41.000Z,34
2018-08-10T04:06:41.000Z,34
2018-08-10T04:07:41.000Z,34
2018-08-10T04:08:41.000Z,34
2018-08-10T04:09:41.000Z,34
2018-08-10T04:10:41.000Z,34
2018-08-10T04:11:41.000Z,34
2018-08-10T04:12:41.000Z,34
2018-08-10T04:13:41.000Z,34
2018-08-10T04:14:41.000Z,34
2018-08-10T04:15:41.000Z,34
2018-08-10T04:16:41.000Z,34
2018-08-10T04:17:41.000Z,34
2018-08-10T04:18:41.000Z,34
2018-08-10T04:19:41.000Z,34
2018-08-10T04:21:41.000Z,34
2018-08-10T04:22:41.000Z,34
2018-08-10T04:23:41.000Z,34
2018-08-10T04:24:41.000Z,34
2018-08-10T04:25:41.000Z,34
2018-08-10T04:26:41.000Z,34
2018-08-10T04:27:41.000Z,34
2018-08-10T04:28:41.000Z,34
2018-08-10T04:30:41.000Z,34
2018-08-10T04:31:41.000Z,34
2018-08-10T04:33:41.000Z,35
2018-08-10T04:34:41.000Z,35
2018-08-10T04:35:41.000Z,35
2018-08-10T04:36:41.000Z,35
2018-08-10T04:37:41.000Z,35
2018-08-10T04:38:41.000Z,35
2018-08-10T04:39:41.000Z,35
2018-08-10T04:40:41.000Z,35
2018-08-10T04:41:41.000Z,35
2018-08-10T04:42:41.000Z,35
2018-08-10T04:43:41.000Z,36
2018-08-10T04:44:41.000Z,36
2018-08-10T04:45:41.000Z,36
2018-08-10T04:46:41.000Z,36
2018-08-10T04:47:41.000Z,36
2018-08-10T04:48:41.000Z,36
2018-08-10T04:49:41.000Z,35
2018-08-10T04:50:41.000Z,36
2018-08-10T04:51:41.000Z,35
2018-08-10T04:52:41.000Z,36
2018-08-10T04:53:41.000Z,36
2018-08-10T04:55:41.000Z,35
2018-08-10T04:56:41.000Z,36
2018-08-10T05:00:27.000Z,36
2018-08-10T05:01:27.000Z,36
2018-08-10T05:02:27.000Z,36
2018-08-10T05:03:27.000Z,36
2018-08-10T05:04:27.000Z,36
2018-08-10T05:05:27.000Z,36
2018-08-10T05:06:27.000Z,36
2018-08-10T05:07:27.000Z,36
2018-08-10T05:08:27.000Z,36
2018-08-10T05:10:27.000Z,36
2018-08-10T05:11:27.000Z,36
2018-08-10T05:12:27.000Z,37
2018-08-10T05:13:27.000Z,37
2018-08-10T05:14:27.000Z,36
2018-08-10T05:15:27.000Z,37
2018-08-10T05:16:27.000Z,36
2018-08-10T05:17:27.000Z,37
2018-08-10T05:18:27.000Z,36
2018-08-10T05:19:27.000Z,37
2018-08-10T05:20:27.000Z,36
2018-08-10T05:21:27.000Z,37
2018-08-10T05:22:27.000Z,37
2018-08-10T05:23:27.000Z,37
2018-08-10T05:24:27.000Z,37
2018-08-10T05:26:27.000Z,37
2018-08-10T05:28:27.000Z,37
2018-08-10T05:30:27.000Z,37
2018-08-10T05:31:27.000Z,37
2018-08-10T05:32:27.000Z,37
2018-08-10T05:33:27.000Z,37
2018-08-10T05:34:27.000Z,37
2018-08-10T05:36:27.000Z,37
2018-08-10T05:37:27.000Z,37
2018-08-10T05:38:27.000Z,37
2018-08-10T05:39:27.000Z,37
2018-08-10T05:40:27.000Z,37
2018-08-10T05:41:27.000Z,37
2018-08-10T05:42:27.000Z,37
2018-08-10T05:44:27.000Z,37
2018-08-10T05:45:27.000Z,37
2018-08-10T05:46:27.000Z,37
2018-08-10T05:47:27.000Z,37
2018-08-10T05:48:27.000Z,37
2018-08-10T05:49:27.000Z,37
2018-08-10T05:50:27.000Z,37
2018-08-10T05:52:27.000Z,37
2018-08-10T05:53:27.000Z,37
2018-08-10T05:54:27.000Z,37
2018-08-10T05:56:27.000Z,37
2018-08-10T05:57:27.000Z,38
2018-08-10T05:58:27.000Z,38
2018-08-10T05:59:27.000Z,38
2018-08-10T06:01:27.000Z,37
2018-08-10T06:02:27.000Z,38
2018-08-10T06:03:27.000Z,38
2018-08-10T06:04:27.000Z,38
2018-08-10T06:06:27.000Z,38
2018-08-10T06:07:27.000Z,38
2018-08-10T06:08:27.000Z,37
2018-08-10T06:09:27.000Z,38
2018-08-10T06:10:27.000Z,37
2018-08-10T06:11:27.000Z,38
2018-08-10T06:12:27.000Z,38
2018-08-10T06:13:27.000Z,37
2018-08-10T06:14:27.000Z,38
2018-08-10T06:15:27.000Z,38
2018-08-10T06:16:27.000Z,37
2018-08-10T06:17:27.000Z,37
2018-08-10T06:19:27.000Z,37
2018-08-10T06:20:27.000Z,37
2018-08-10T06:21:27.000Z,37
2018-08-10T06:23:27.000Z,37
2018-08-10T06:24:27.000Z,37
2018-08-10T06:25:27.000Z,37
2018-08-10T06:26:27.000Z,37
2018-08-10T06:27:27.000Z,37
2018-08-10T06:28:27.000Z,37
2018-08-10T06:29:27.000Z,37
2018-08-10T06:31:27.000Z,37
2018-08-10T06:32:27.000Z,37
2018-08-10T06:33:27.000Z,37
2018-08-10T06:34:27.000Z,37
2018-08-10T06:35:27.000Z,37
2018-08-10T06:36:27.000Z,37
2018-08-10T06:37:27.000Z,37
2018-08-10T06:39:27.000Z,37
2018-08-10T06:40:27.000Z,37
2018-08-10T06:41:27.000Z,37
2018-08-10T06:42:27.000Z,37
2018-08-10T06:43:27.000Z,37
2018-08-10T06:45:27.000Z,36
2018-08-10T06:46:27.000Z,37
2018-08-10T06:47:27.000Z,36
2018-08-10T06:48:27.000Z,37
2018-08-10T06:49:27.000Z,37
2018-08-10T06:50:27.000Z,36
2018-08-10T06:51:27.000Z,36
2018-08-10T06:53:27.000Z,36
2018-08-10T06:54:27.000Z,36
2018-08-10T06:55:27.000Z,36
2018-08-10T06:56:27.000Z,36
2018-08-10T06:57:27.000Z,36
2018-08-10T06:58:27.000Z,36
2018-08-10T06:59:27.000Z,36
2018-08-10T07:01:27.000Z,36
2018-08-10T07:02:27.000Z,36
2018-08-10T07:03:27.000Z,36
2018-08-10T07:04:27.000Z,36
2018-08-10T07:05:27.000Z,36
2018-08-10T07:06:27.000Z,36
2018-08-10T07:07:27.000Z,36
2018-08-10T07:08:27.000Z,36
2018-08-10T07:09:27.000Z,36
2018-08-10T07:10:27.000Z,35
2018-08-10T07:11:27.000Z,35
2018-08-10T07:12:27.000Z,35
2018-08-10T07:13:27.000Z,35
2018-08-10T07:14:27.000Z,35
2018-08-10T07:15:27.000Z,35
2018-08-10T07:17:27.000Z,35
2018-08-10T07:18:27.000Z,35
2018-08-10T07:19:27.000Z,35
2018-08-10T07:20:27.000Z,35
2018-08-10T07:21:27.000Z,35
2018-08-10T07:22:27.000Z,35
2018-08-10T07:23:27.000Z,35
2018-08-10T07:24:27.000Z,35
2018-08-10T07:26:27.000Z,35
2018-08-10T07:27:27.000Z,35
2018-08-10T07:28:27.000Z,35
2018-08-10T07:29:27.000Z,35
2018-08-10T07:31:27.000Z,34
2018-08-10T07:32:27.000Z,34
2018-08-10T07:33:27.000Z,34
2018-08-10T07:34:27.000Z,34
2018-08-10T07:35:27.000Z,34
2018-08-10T07:37:27.000Z,34
2018-08-10T07:38:27.000Z,34
2018-08-10T07:39:27.000Z,34
2018-08-10T07:40:27.000Z,34
2018-08-10T07:41:27.000Z,34
2018-08-10T07:42:27.000Z,34
2018-08-10T07:43:27.000Z,34
2018-08-10T07:44:27.000Z,34
2018-08-10T07:45:27.000Z,34
2018-08-10T07:46:27.000Z,34
2018-08-10T07:47:27.000Z,34
2018-08-10T07:49:27.000Z,33
2018-08-10T07:50:27.000Z,33
2018-08-10T07:51:27.000Z,33
2018-08-10T07:52:27.000Z,33
2018-08-10T07:54:27.000Z,33
2018-08-10T07:55:27.000Z,33
2018-08-10T07:56:27.000Z,33
2018-08-10T07:57:27.000Z,33
2018-08-10T07:58:27.000Z,33
2018-08-10T07:59:27.000Z,33
2018-08-10T08:00:27.000Z,33
2018-08-10T08:01:27.000Z,33
2018-08-10T08:02:27.000Z,33
2018-08-10T08:03:27.000Z,33
2018-08-10T08:04:27.000Z,33
2018-08-10T08:05:27.000Z,33
2018-08-10T08:06:27.000Z,33
2018-08-10T08:07:27.000Z,33
2018-08-10T08:08:27.000Z,33
2018-08-10T08:09:27.000Z,33
2018-08-10T08:10:27.000Z,33
2018-08-10T08:11:27.000Z,33
2018-08-10T08:12:27.000Z,33
2018-08-10T08:13:27.000Z,33
2018-08-10T08:14:27.000Z,33
2018-08-10T08:15:27.000Z,33
2018-08-10T08:16:27.000Z,33
2018-08-10T08:17:27.000Z,33
2018-08-10T08:18:27.000Z,33
2018-08-10T08:19:27.000Z,33
2018-08-10T08:20:27.000Z,33
2018-08-10T08:22:27.000Z,33
2018-08-10T08:23:27.000Z,33
2018-08-10T08:24:27.000Z,33
2018-08-10T08:25:27.000Z,33
2018-08-10T08:27:27.000Z,33
2018-08-10T08:28:27.000Z,33
2018-08-10T08:29:27.000Z,33
2018-08-10T08:31:27.000Z,33
2018-08-10T08:32:27.000Z,33
2018-08-10T08:33:27.000Z,33
2018-08-10T08:34:27.000Z,33
2018-08-10T08:35:27.000Z,33
2018-08-10T08:37:27.000Z,33
2018-08-10T08:38:27.000Z,33
2018-08-10T08:39:27.000Z,33
2018-08-10T08:40:27.000Z,33
2018-08-10T08:41:27.000Z,33
2018-08-10T08:42:27.000Z,33
2018-08-10T08:43:27.000Z,33
2018-08-10T08:44:27.000Z,33
2018-08-10T08:45:27.000Z,33
2018-08-10T08:46:27.000Z,33
2018-08-10T08:47:27.000Z,33
2018-08-10T08:48:27.000Z,33
2018-08-10T08:49:27.000Z,33
2018-08-10T08:50:27.000Z,33
2018-08-10T08:51:27.000Z,33
2018-08-10T08:53:27.000Z,32
2018-08-10T08:54:27.000Z,33
2018-08-10T08:55:27.000Z,33
2018-08-10T08:56:27.000Z,33
2018-08-10T08:57:27.000Z,32
2018-08-10T08:58:27.000Z,32
2018-08-10T08:59:27.000Z,32
2018-08-10T09:00:27.000Z,32
2018-08-10T09:01:27.000Z,32
2018-08-10T09:02:27.000Z,32
2018-08-10T09:03:27.000Z,32
2018-08-10T09:05:27.000Z,32
2018-08-10T09:06:27.000Z,32
2018-08-10T09:07:27.000Z,32
2018-08-10T09:08:27.000Z,32
2018-08-10T09:09:27.000Z,32
2018-08-10T09:10:27.000Z,32
2018-08-10T09:11:27.000Z,32
2018-08-10T09:12:27.000Z,32
2018-08-10T09:13:27.000Z,32
2018-08-10T09:14:27.000Z,32
2018-08-10T09:15:27.000Z,32
2018-08-10T09:16:27.000Z,32
2018-08-10T09:17:27.000Z,32
2018-08-10T09:18:27.000Z,32
2018-08-10T09:19:27.000Z,32
2018-08-10T09:20:27.000Z,31
2018-08-10T09:21:27.000Z,31
2018-08-10T09:22:27.000Z,32
2018-08-10T09:24:27.000Z,31
2018-08-10T09:25:27.000Z,31
2018-08-10T09:26:27.000Z,31
2018-08-10T09:27:27.000Z,31
2018-08-10T09:28:27.000Z,31
2018-08-10T09:29:27.000Z,31
2018-08-10T09:30:27.000Z,31
2018-08-10T09:31:27.000Z,31
2018-08-10T09:32:27.000Z,31
2018-08-10T09:33:27.000Z,31
2018-08-10T09:34:27.000Z,31
2018-08-10T09:35:27.000Z,31
2018-08-10T09:36:27.000Z,31
2018-08-10T09:37:27.000Z,31
2018-08-10T09:38:27.000Z,31
2018-08-10T09:40:27.000Z,31
2018-08-10T09:41:27.000Z,31
2018-08-10T09:42:27.000Z,31
2018-08-10T09:43:27.000Z,31
2018-08-10T09:44:27.000Z,31
2018-08-10T09:45:27.000Z,31
2018-08-10T09:46:27.000Z,31
2018-08-10T09:48:27.000Z,30
2018-08-10T09:49:27.000Z,31
2018-08-10T09:50:27.000Z,30
2018-08-10T09:51:27.000Z,31
2018-08-10T09:52:27.000Z,30
2018-08-10T09:53:27.000Z,30
2018-08-10T09:54:27.000Z,30
2018-08-10T09:55:27.000Z,30
2018-08-10T09:56:27.000Z,30
2018-08-10T09:57:27.000Z,30
2018-08-10T09:58:27.000Z,30
2018-08-10T09:59:27.000Z,30
2018-08-10T10:00:27.000Z,30
2018-08-10T10:01:27.000Z,30
2018-08-10T10:02:27.000Z,30
2018-08-10T10:03:27.000Z,30
2018-08-10T10:05:27.000Z,30
2018-08-10T10:07:27.000Z,30
2018-08-10T10:08:27.000Z,30
2018-08-10T10:09:27.000Z,30
2018-08-10T10:11:27.000Z,30
2018-08-10T10:12:27.000Z,30
2018-08-10T10:13:27.000Z,30
2018-08-10T10:15:27.000Z,30
2018-08-10T10:16:27.000Z,30
2018-08-10T10:17:27.000Z,30
2018-08-10T10:18:27.000Z,30
2018-08-10T10:19:27.000Z,30
2018-08-10T10:20:27.000Z,30
2018-08-10T10:21:27.000Z,30
2018-08-10T10:22:27.000Z,30
2018-08-10T10:23:27.000Z,30
2018-08-10T10:24:27.000Z,30
2018-08-10T10:25:27.000Z,30
2018-08-10T10:26:27.000Z,30
2018-08-10T10:27:27.000Z,30
2018-08-10T10:28:27.000Z,30
2018-08-10T10:29:27.000Z,30
2018-08-10T10:30:27.000Z,30
2018-08-10T10:31:27.000Z,30
2018-08-10T10:32:27.000Z,30
2018-08-10T10:33:27.000Z,30
2018-08-10T10:34:27.000Z,29
2018-08-10T10:35:27.000Z,29
2018-08-10T10:36:27.000Z,29
2018-08-10T10:37:27.000Z,29
2018-08-10T10:38:27.000Z,29
2018-08-10T10:40:27.000Z,29
2018-08-10T10:41:27.000Z,29
2018-08-10T10:42:27.000Z,29
2018-08-10T10:44:27.000Z,29
2018-08-10T10:45:27.000Z,29
2018-08-10T10:47:27.000Z,29
2018-08-10T10:48:27.000Z,29
2018-08-10T10:49:27.000Z,29
2018-08-10T10:50:27.000Z,29
2018-08-10T10:52:27.000Z,29
2018-08-10T10:53:27.000Z,29
2018-08-10T10:54:27.000Z,29
2018-08-10T10:55:27.000Z,29
2018-08-10T10:56:27.000Z,29
2018-08-10T10:57:27.000Z,29
2018-08-10T10:58:27.000Z,29
2018-08-10T10:59:28.000Z,29
2018-08-10T11:00:28.000Z,29
2018-08-10T11:01:28.000Z,29
2018-08-10T11:02:28.000Z,29
2018-08-10T11:03:28.000Z,29
2018-08-10T11:04:28.000Z,29
2018-08-10T11:05:28.000Z,28
2018-08-10T11:06:28.000Z,28
2018-08-10T11:07:28.000Z,28
2018-08-10T11:08:28.000Z,28
2018-08-10T11:09:28.000Z,28
2018-08-10T11:10:28.000Z,28
2018-08-10T11:12:28.000Z,28
2018-08-10T11:13:28.000Z,28
2018-08-10T11:15:28.000Z,28
2018-08-10T11:16:28.000Z,28
2018-08-10T11:17:28.000Z,28
2018-08-10T11:18:28.000Z,28
2018-08-10T11:19:28.000Z,28
2018-08-10T11:20:28.000Z,28
2018-08-10T11:21:28.000Z,28
2018-08-10T11:22:28.000Z,28
2018-08-10T11:23:28.000Z,28
2018-08-10T11:24:28.000Z,28
2018-08-10T11:25:28.000Z,28
2018-08-10T11:26:28.000Z,28
2018-08-10T11:28:28.000Z,28
2018-08-10T11:29:28.000Z,28
2018-08-10T11:30:28.000Z,28
2018-08-10T11:31:28.000Z,28
2018-08-10T11:33:28.000Z,27
2018-08-10T11:34:28.000Z,27
2018-08-10T11:35:28.000Z,27
2018-08-10T11:36:28.000Z,27
2018-08-10T11:37:28.000Z,27
2018-08-10T11:38:28.000Z,27
2018-08-10T11:39:28.000Z,27
2018-08-10T11:41:28.000Z,27
2018-08-10T11:42:28.000Z,27
2018-08-10T11:43:28.000Z,27
2018-08-10T11:44:28.000Z,27
2018-08-10T11:45:28.000Z,27
2018-08-10T11:46:28.000Z,27
2018-08-10T11:47:28.000Z,27
2018-08-10T11:49:28.000Z,27
2018-08-10T11:50:28.000Z,27
2018-08-10T11:51:28.000Z,27
2018-08-10T11:53:28.000Z,27
2018-08-10T11:54:28.000Z,27
2018-08-10T11:55:28.000Z,27
2018-08-10T11:56:28.000Z,27
2018-08-10T11:57:28.000Z,27
2018-08-10T11:58:28.000Z,27
2018-08-10T11:59:28.000Z,27
2018-08-10T12:00:28.000Z,27
2018-08-10T12:01:28.000Z,27
2018-08-10T12:02:28.000Z,27
2018-08-10T12:03:28.000Z,27
2018-08-10T12:04:28.000Z,27
2018-08-10T12:05:28.000Z,27
2018-08-10T12:06:28.000Z,27
2018-08-10T12:07:28.000Z,27
2018-08-10T12:08:28.000Z,27
2018-08-10T12:09:28.000Z,26
2018-08-10T12:10:28.000Z,26
2018-08-10T12:11:28.000Z,26
2018-08-10T12:12:28.000Z,26
2018-08-10T12:13:28.000Z,26
2018-08-10T12:14:28.000Z,26
2018-08-10T12:15:28.000Z,26
2018-08-10T12:16:28.000Z,26
2018-08-10T12:18:28.000Z,26
2018-08-10T12:19:28.000Z,26
2018-08-10T12:21:28.000Z,26
2018-08-10T12:22:28.000Z,26
2018-08-10T12:23:28.000Z,26
2018-08-10T12:24:28.000Z,26
2018-08-10T12:25:28.000Z,26
2018-08-10T12:26:28.000Z,26
2018-08-10T12:27:28.000Z,26
2018-08-10T12:28:28.000Z,26
2018-08-10T12:29:28.000Z,26
2018-08-10T12:30:28.000Z,26
2018-08-10T12:31:28.000Z,26
2018-08-10T12:32:28.000Z,26
2018-08-10T12:35:07.000Z,26
2018-08-10T12:37:07.000Z,26
2018-08-10T12:39:07.000Z,25
2018-08-10T12:40:07.000Z,26
2018-08-10T12:42:07.000Z,26
2018-08-10T12:43:07.000Z,26
2018-08-10T12:44:07.000Z,25
2018-08-10T12:45:07.000Z,26
2018-08-10T12:47:07.000Z,25
2018-08-10T12:48:07.000Z,26
2018-08-10T12:50:07.000Z,26
2018-08-10T12:51:07.000Z,26
2018-08-10T12:52:07.000Z,26
2018-08-10T12:54:07.000Z,25
2018-08-10T12:55:07.000Z,26
2018-08-10T12:57:07.000Z,25
2018-08-10T12:58:07.000Z,26
2018-08-10T12:59:07.000Z,26
2018-08-10T13:00:07.000Z,26
2018-08-10T13:01:07.000Z,25
2018-08-10T13:02:07.000Z,26
2018-08-10T13:03:07.000Z,26
2018-08-10T13:04:07.000Z,25
2018-08-10T13:05:07.000Z,25
2018-08-10T13:06:07.000Z,25
2018-08-10T13:07:07.000Z,25
2018-08-10T13:08:07.000Z,25
2018-08-10T13:09:07.000Z,25
2018-08-10T13:10:07.000Z,25
2018-08-10T13:11:07.000Z,25
2018-08-10T13:12:07.000Z,25
2018-08-10T13:14:07.000Z,25
2018-08-10T13:16:07.000Z,25
2018-08-10T13:17:07.000Z,25
2018-08-10T13:18:07.000Z,25
2018-08-10T13:19:07.000Z,25
2018-08-10T13:20:07.000Z,25
2018-08-10T13:21:07.000Z,25
2018-08-10T13:22:07.000Z,25
2018-08-10T13:23:07.000Z,25
2018-08-10T13:24:07.000Z,25
2018-08-10T13:25:07.000Z,25
2018-08-10T13:26:07.000Z,25
2018-08-10T13:27:07.000Z,25
2018-08-10T13:29:07.000Z,25
2018-08-10T13:30:07.000Z,25
2018-08-10T13:31:07.000Z,25
2018-08-10T13:32:07.000Z,25
2018-08-10T13:33:07.000Z,25
2018-08-10T13:34:07.000Z,25
2018-08-10T13:35:07.000Z,25
2018-08-10T13:36:07.000Z,25
2018-08-10T13:37:07.000Z,25
2018-08-10T13:38:07.000Z,25
2018-08-10T13:39:07.000Z,25
2018-08-10T13:40:07.000Z,25
2018-08-10T13:41:07.000Z,25
2018-08-10T13:42:07.000Z,25
2018-08-10T13:43:07.000Z,25
2018-08-10T13:44:07.000Z,25
2018-08-10T13:45:07.000Z,25
2018-08-10T13:46:07.000Z,24
2018-08-10T13:47:07.000Z,25
2018-08-10T13:48:07.000Z,25
2018-08-10T13:49:07.000Z,25
2018-08-10T13:50:07.000Z,24
2018-08-10T13:52:07.000Z,24
2018-08-10T13:53:07.000Z,25
2018-08-10T13:54:07.000Z,25
2018-08-10T13:55:07.000Z,25
2018-08-10T13:57:07.000Z,24
2018-08-10T13:58:07.000Z,25
2018-08-10T13:59:07.000Z,25
2018-08-10T14:00:07.000Z,25
2018-08-10T14:01:07.000Z,25
2018-08-10T14:02:07.000Z,25
2018-08-10T14:03:07.000Z,25
2018-08-10T14:04:07.000Z,25
2018-08-10T14:05:07.000Z,25
2018-08-10T14:06:07.000Z,24
2018-08-10T14:07:07.000Z,25
2018-08-10T14:08:07.000Z,25
2018-08-10T14:09:07.000Z,24
2018-08-10T14:10:07.000Z,24
2018-08-10T14:11:07.000Z,24
2018-08-10T14:12:07.000Z,24
2018-08-10T14:13:07.000Z,24
2018-08-10T14:14:07.000Z,24
2018-08-10T14:15:07.000Z,24
2018-08-10T14:16:07.000Z,24
2018-08-10T14:17:07.000Z,24
2018-08-10T14:19:07.000Z,24
2018-08-10T14:20:07.000Z,24
2018-08-10T14:21:07.000Z,24
2018-08-10T14:22:07.000Z,24
2018-08-10T14:24:07.000Z,24
2018-08-10T14:25:07.000Z,24
2018-08-10T14:26:07.000Z,24
2018-08-10T14:27:07.000Z,24
2018-08-10T14:28:07.000Z,24
2018-08-10T14:29:07.000Z,24
2018-08-10T14:30:07.000Z,24
2018-08-10T14:31:07.000Z,24
2018-08-10T14:32:07.000Z,24
2018-08-10T14:33:07.000Z,24
2018-08-10T14:34:07.000Z,24
2018-08-10T14:35:07.000Z,24
2018-08-10T14:36:07.000Z,24
2018-08-10T14:37:07.000Z,24
2018-08-10T14:38:07.000Z,24
2018-08-10T14:40:07.000Z,24
2018-08-10T14:41:07.000Z,24
2018-08-10T14:42:07.000Z,24
2018-08-10T14:44:07.000Z,24
2018-08-10T14:45:07.000Z,24
2018-08-10T14:46:07.000Z,24
2018-08-10T14:47:07.000Z,24
2018-08-10T14:48:07.000Z,24
2018-08-10T14:50:07.000Z,24
2018-08-10T14:51:07.000Z,24
2018-08-10T14:52:07.000Z,24
2018-08-10T14:53:07.000Z,24
2018-08-10T14:54:07.000Z,24
2018-08-10T14:55:07.000Z,24
2018-08-10T14:56:07.000Z,24
2018-08-10T14:57:07.000Z,24
2018-08-10T14:58:07.000Z,24
2018-08-10T14:59:07.000Z,24
2018-08-10T15:01:07.000Z,23
2018-08-10T15:02:07.000Z,23
2018-08-10T15:03:07.000Z,24
2018-08-10T15:05:07.000Z,23
2018-08-10T15:06:07.000Z,23
2018-08-10T15:07:07.000Z,23
2018-08-10T15:08:07.000Z,23
2018-08-10T15:09:07.000Z,23
2018-08-10T15:10:07.000Z,23
2018-08-10T15:12:07.000Z,23
2018-08-10T15:13:07.000Z,23
2018-08-10T15:14:07.000Z,23
2018-08-10T15:15:07.000Z,23
2018-08-10T15:16:07.000Z,24
2018-08-10T15:17:07.000Z,23
2018-08-10T15:18:07.000Z,24
2018-08-10T15:19:07.000Z,23
2018-08-10T15:21:07.000Z,23
2018-08-10T15:22:07.000Z,24
2018-08-10T15:23:07.000Z,24
2018-08-10T15:24:07.000Z,24
2018-08-10T15:25:07.000Z,24
2018-08-10T15:27:07.000Z,24
2018-08-10T15:28:07.000Z,24
2018-08-10T15:30:07.000Z,24
2018-08-10T15:31:07.000Z,24
2018-08-10T15:32:07.000Z,24
2018-08-10T15:33:07.000Z,24
2018-08-10T15:34:07.000Z,24
2018-08-10T15:35:07.000Z,24
2018-08-10T15:37:07.000Z,24
2018-08-10T15:38:07.000Z,24
2018-08-10T15:39:07.000Z,24
2018-08-10T15:40:07.000Z,24
2018-08-10T15:41:07.000Z,24
2018-08-10T15:42:07.000Z,24
2018-08-10T15:43:07.000Z,24
2018-08-10T15:44:07.000Z,24
2018-08-10T15:45:07.000Z,24
2018-08-10T15:46:07.000Z,24
2018-08-10T15:47:07.000Z,24
2018-08-10T15:48:07.000Z,24
2018-08-10T15:49:07.000Z,24
2018-08-10T15:50:07.000Z,24
2018-08-10T15:51:07.000Z,24
2018-08-10T15:53:07.000Z,24
2018-08-10T15:54:07.000Z,24
2018-08-10T15:55:07.000Z,24
2018-08-10T15:56:07.000Z,24
2018-08-10T15:57:07.000Z,24
2018-08-10T15:58:07.000Z,24
2018-08-10T15:59:07.000Z,24
2018-08-10T16:00:07.000Z,24
2018-08-10T16:02:07.000Z,24
2018-08-10T16:03:07.000Z,24
2018-08-10T16:04:07.000Z,24
2018-08-10T16:06:07.000Z,24
2018-08-10T16:07:07.000Z,24
2018-08-10T16:09:07.000Z,24
2018-08-10T16:11:07.000Z,24